sensor_id;sensor_type;location;lat;lon;timestamp;temperature;humidity
66337;SHT30;53139;45.576;5.304;2022-12-20T00:00:17;9.82;89.92
66337;SHT30;53139;45.576;5.304;2022-12-20T00:03:18;9.61;91.09
66337;SHT30;53139;45.576;5.304;2022-12-20T00:06:20;9.85;90.43
66337;SHT30;53139;45.576;5.304;2022-12-20T00:09:21;9.71;91.16
66337;SHT30;53139;45.576;5.304;2022-12-20T00:12:21;10.27;88.43
66337;SHT30;53139;45.576;5.304;2022-12-20T00:15:22;9.95;89.76
66337;SHT30;53139;45.576;5.304;2022-12-20T00:18:22;10.21;88.65
66337;SHT30;53139;45.576;5.304;2022-12-20T00:21:23;10.06;89.35
66337;SHT30;53139;45.576;5.304;2022-12-20T00:24:23;9.98;89.31
66337;SHT30;53139;45.576;5.304;2022-12-20T00:27:24;10.06;89.28
66337;SHT30;53139;45.576;5.304;2022-12-20T00:30:24;9.93;89.84
66337;SHT30;53139;45.576;5.304;2022-12-20T00:33:25;10.09;89.15
66337;SHT30;53139;45.576;5.304;2022-12-20T00:36:28;9.99;89.66
66337;SHT30;53139;45.576;5.304;2022-12-20T00:39:28;10.27;89.14
66337;SHT30;53139;45.576;5.304;2022-12-20T00:42:28;9.92;90.70
66337;SHT30;53139;45.576;5.304;2022-12-20T00:45:29;10.16;90.12
66337;SHT30;53139;45.576;5.304;2022-12-20T00:48:30;10.13;89.73
66337;SHT30;53139;45.576;5.304;2022-12-20T00:51:30;10.24;89.08
66337;SHT30;53139;45.576;5.304;2022-12-20T00:54:32;10.10;89.81
66337;SHT30;53139;45.576;5.304;2022-12-20T00:57:32;10.00;90.57
66337;SHT30;53139;45.576;5.304;2022-12-20T01:00:32;9.89;90.85
66337;SHT30;53139;45.576;5.304;2022-12-20T01:03:33;9.88;90.96
66337;SHT30;53139;45.576;5.304;2022-12-20T01:06:33;10.26;89.48
66337;SHT30;53139;45.576;5.304;2022-12-20T01:09:34;10.00;90.21
66337;SHT30;53139;45.576;5.304;2022-12-20T01:12:34;10.10;89.58
66337;SHT30;53139;45.576;5.304;2022-12-20T01:15:34;10.07;90.21
66337;SHT30;53139;45.576;5.304;2022-12-20T01:18:35;10.12;90.30
66337;SHT30;53139;45.576;5.304;2022-12-20T01:21:35;10.10;89.78
66337;SHT30;53139;45.576;5.304;2022-12-20T01:24:37;10.14;89.43
66337;SHT30;53139;45.576;5.304;2022-12-20T01:27:37;10.09;89.51
66337;SHT30;53139;45.576;5.304;2022-12-20T01:30:40;10.30;89.18
66337;SHT30;53139;45.576;5.304;2022-12-20T01:33:41;10.23;89.47
66337;SHT30;53139;45.576;5.304;2022-12-20T01:36:41;10.57;88.52
66337;SHT30;53139;45.576;5.304;2022-12-20T01:39:42;10.38;89.04
66337;SHT30;53139;45.576;5.304;2022-12-20T01:42:42;10.50;88.74
66337;SHT30;53139;45.576;5.304;2022-12-20T01:45:43;10.67;87.92
66337;SHT30;53139;45.576;5.304;2022-12-20T01:49:29;10.69;88.01
66337;SHT30;53139;45.576;5.304;2022-12-20T01:52:14;11.13;86.01
66337;SHT30;53139;45.576;5.304;2022-12-20T01:55:18;11.13;85.68
66337;SHT30;53139;45.576;5.304;2022-12-20T01:58:20;11.10;85.98
66337;SHT30;53139;45.576;5.304;2022-12-20T02:01:22;11.27;84.63
66337;SHT30;53139;45.576;5.304;2022-12-20T02:04:23;10.85;86.16
66337;SHT30;53139;45.576;5.304;2022-12-20T02:07:25;11.12;85.09
66337;SHT30;53139;45.576;5.304;2022-12-20T02:13:55;10.98;85.15
66337;SHT30;53139;45.576;5.304;2022-12-20T02:17:24;11.09;85.10
66337;SHT30;53139;45.576;5.304;2022-12-20T02:23:49;11.06;84.45
66337;SHT30;53139;45.576;5.304;2022-12-20T02:30:33;11.16;83.20
66337;SHT30;53139;45.576;5.304;2022-12-20T02:33:34;11.24;82.41
66337;SHT30;53139;45.576;5.304;2022-12-20T02:36:35;10.98;84.12
66337;SHT30;53139;45.576;5.304;2022-12-20T02:39:38;11.00;83.94
66337;SHT30;53139;45.576;5.304;2022-12-20T02:42:39;10.75;85.08
66337;SHT30;53139;45.576;5.304;2022-12-20T02:45:39;10.47;87.33
66337;SHT30;53139;45.576;5.304;2022-12-20T02:48:40;10.29;87.52
66337;SHT30;53139;45.576;5.304;2022-12-20T02:51:45;10.18;88.28
66337;SHT30;53139;45.576;5.304;2022-12-20T02:54:46;10.17;88.50
66337;SHT30;53139;45.576;5.304;2022-12-20T02:57:55;10.54;84.47
66337;SHT30;53139;45.576;5.304;2022-12-20T03:01:00;9.95;88.41
66337;SHT30;53139;45.576;5.304;2022-12-20T03:04:03;10.67;83.89
66337;SHT30;53139;45.576;5.304;2022-12-20T03:07:08;10.57;84.62
66337;SHT30;53139;45.576;5.304;2022-12-20T03:10:09;10.40;84.30
66337;SHT30;53139;45.576;5.304;2022-12-20T03:13:10;10.05;87.45
66337;SHT30;53139;45.576;5.304;2022-12-20T03:16:10;9.92;87.87
66337;SHT30;53139;45.576;5.304;2022-12-20T03:19:11;10.26;86.17
66337;SHT30;53139;45.576;5.304;2022-12-20T03:22:11;10.43;82.78
66337;SHT30;53139;45.576;5.304;2022-12-20T03:25:12;10.33;82.52
66337;SHT30;53139;45.576;5.304;2022-12-20T03:28:12;10.06;84.07
66337;SHT30;53139;45.576;5.304;2022-12-20T03:31:12;9.65;87.65
66337;SHT30;53139;45.576;5.304;2022-12-20T03:34:13;9.48;89.15
66337;SHT30;53139;45.576;5.304;2022-12-20T03:37:14;9.37;89.75
66337;SHT30;53139;45.576;5.304;2022-12-20T03:40:15;9.69;86.86
66337;SHT30;53139;45.576;5.304;2022-12-20T03:43:15;9.54;85.51
66337;SHT30;53139;45.576;5.304;2022-12-20T03:46:16;9.69;84.89
66337;SHT30;53139;45.576;5.304;2022-12-20T03:49:17;9.57;85.89
66337;SHT30;53139;45.576;5.304;2022-12-20T03:52:18;9.26;89.57
66337;SHT30;53139;45.576;5.304;2022-12-20T03:55:18;9.30;89.31
66337;SHT30;53139;45.576;5.304;2022-12-20T03:58:18;9.95;85.34
66337;SHT30;53139;45.576;5.304;2022-12-20T04:01:24;10.34;83.66
66337;SHT30;53139;45.576;5.304;2022-12-20T04:04:25;10.12;86.18
66337;SHT30;53139;45.576;5.304;2022-12-20T04:07:28;10.52;82.91
66337;SHT30;53139;45.576;5.304;2022-12-20T04:10:28;10.14;85.79
66337;SHT30;53139;45.576;5.304;2022-12-20T04:13:29;10.21;85.40
66337;SHT30;53139;45.576;5.304;2022-12-20T04:16:30;10.58;82.48
66337;SHT30;53139;45.576;5.304;2022-12-20T04:19:31;10.55;82.27
66337;SHT30;53139;45.576;5.304;2022-12-20T04:22:31;10.17;85.30
66337;SHT30;53139;45.576;5.304;2022-12-20T04:25:32;10.10;87.16
66337;SHT30;53139;45.576;5.304;2022-12-20T04:28:33;10.16;86.90
66337;SHT30;53139;45.576;5.304;2022-12-20T04:31:34;10.32;85.18
66337;SHT30;53139;45.576;5.304;2022-12-20T04:34:35;11.10;81.66
66337;SHT30;53139;45.576;5.304;2022-12-20T04:37:35;10.98;81.43
66337;SHT30;53139;45.576;5.304;2022-12-20T04:40:36;10.99;82.33
66337;SHT30;53139;45.576;5.304;2022-12-20T04:43:36;11.28;80.96
66337;SHT30;53139;45.576;5.304;2022-12-20T04:46:37;11.45;79.43
66337;SHT30;53139;45.576;5.304;2022-12-20T04:49:37;11.00;82.28
66337;SHT30;53139;45.576;5.304;2022-12-20T04:52:37;11.05;81.69
66337;SHT30;53139;45.576;5.304;2022-12-20T04:55:56;10.67;86.19
66337;SHT30;53139;45.576;5.304;2022-12-20T04:58:57;11.34;82.14
66337;SHT30;53139;45.576;5.304;2022-12-20T05:01:58;10.83;85.68
66337;SHT30;53139;45.576;5.304;2022-12-20T05:04:58;10.83;84.02
66337;SHT30;53139;45.576;5.304;2022-12-20T05:07:58;11.09;82.59
66337;SHT30;53139;45.576;5.304;2022-12-20T05:10:59;11.20;82.16
66337;SHT30;53139;45.576;5.304;2022-12-20T05:13:59;11.41;81.08
66337;SHT30;53139;45.576;5.304;2022-12-20T05:17:00;11.54;80.37
66337;SHT30;53139;45.576;5.304;2022-12-20T05:20:00;11.33;81.98
66337;SHT30;53139;45.576;5.304;2022-12-20T05:23:01;11.54;80.85
66337;SHT30;53139;45.576;5.304;2022-12-20T05:26:20;11.45;81.33
66337;SHT30;53139;45.576;5.304;2022-12-20T05:29:20;11.58;80.37
66337;SHT30;53139;45.576;5.304;2022-12-20T05:32:21;11.74;79.75
66337;SHT30;53139;45.576;5.304;2022-12-20T05:35:21;11.60;80.46
66337;SHT30;53139;45.576;5.304;2022-12-20T05:38:22;11.74;79.58
66337;SHT30;53139;45.576;5.304;2022-12-20T05:41:23;11.81;79.21
66337;SHT30;53139;45.576;5.304;2022-12-20T05:44:23;12.12;77.02
66337;SHT30;53139;45.576;5.304;2022-12-20T05:47:24;11.90;78.26
66337;SHT30;53139;45.576;5.304;2022-12-20T05:50:25;12.00;78.27
66337;SHT30;53139;45.576;5.304;2022-12-20T05:53:25;11.78;78.78
66337;SHT30;53139;45.576;5.304;2022-12-20T05:56:25;11.99;77.64
66337;SHT30;53139;45.576;5.304;2022-12-20T05:59:26;11.83;78.25
66337;SHT30;53139;45.576;5.304;2022-12-20T06:02:26;12.19;76.28
66337;SHT30;53139;45.576;5.304;2022-12-20T06:05:26;12.38;75.74
66337;SHT30;53139;45.576;5.304;2022-12-20T06:08:27;11.78;79.36
66337;SHT30;53139;45.576;5.304;2022-12-20T06:11:27;11.99;77.59
66337;SHT30;53139;45.576;5.304;2022-12-20T06:14:28;12.16;76.21
66337;SHT30;53139;45.576;5.304;2022-12-20T06:17:28;12.45;74.71
66337;SHT30;53139;45.576;5.304;2022-12-20T06:20:28;12.47;74.19
66337;SHT30;53139;45.576;5.304;2022-12-20T06:23:29;12.05;77.30
66337;SHT30;53139;45.576;5.304;2022-12-20T06:26:29;12.51;74.55
66337;SHT30;53139;45.576;5.304;2022-12-20T06:29:35;12.74;73.44
66337;SHT30;53139;45.576;5.304;2022-12-20T06:32:36;12.40;75.82
66337;SHT30;53139;45.576;5.304;2022-12-20T06:35:37;12.60;74.33
66337;SHT30;53139;45.576;5.304;2022-12-20T06:38:37;12.68;73.45
66337;SHT30;53139;45.576;5.304;2022-12-20T06:41:38;12.55;74.95
66337;SHT30;53139;45.576;5.304;2022-12-20T06:44:39;13.17;71.01
66337;SHT30;53139;45.576;5.304;2022-12-20T06:47:40;12.71;74.31
66337;SHT30;53139;45.576;5.304;2022-12-20T06:50:40;13.03;72.46
66337;SHT30;53139;45.576;5.304;2022-12-20T06:53:40;12.95;72.65
66337;SHT30;53139;45.576;5.304;2022-12-20T06:56:41;12.74;74.02
66337;SHT30;53139;45.576;5.304;2022-12-20T06:59:41;12.62;75.76
66337;SHT30;53139;45.576;5.304;2022-12-20T07:02:41;13.27;70.81
66337;SHT30;53139;45.576;5.304;2022-12-20T07:05:42;12.77;74.60
66337;SHT30;53139;45.576;5.304;2022-12-20T07:08:42;13.17;72.26
66337;SHT30;53139;45.576;5.304;2022-12-20T07:11:42;12.85;73.87
66337;SHT30;53139;45.576;5.304;2022-12-20T07:14:43;12.84;74.42
66337;SHT30;53139;45.576;5.304;2022-12-20T07:17:43;13.05;72.94
66337;SHT30;53139;45.576;5.304;2022-12-20T07:20:44;12.98;72.70
66337;SHT30;53139;45.576;5.304;2022-12-20T11:03:19;14.16;69.88
66337;SHT30;53139;45.576;5.304;2022-12-20T11:06:23;14.32;68.74
66337;SHT30;53139;45.576;5.304;2022-12-20T11:09:32;14.10;69.50
66337;SHT30;53139;45.576;5.304;2022-12-20T11:12:33;14.23;69.17
66337;SHT30;53139;45.576;5.304;2022-12-20T11:15:35;14.22;69.14
66337;SHT30;53139;45.576;5.304;2022-12-20T11:18:59;14.06;70.62
66337;SHT30;53139;45.576;5.304;2022-12-20T11:34:59;14.04;70.95
